Capetan Vassilis — C6S2085 — position and weather

sailwx.info

Track history (hours):
 
Tides and Currents Weather Stations Pressure Air Temp Water Temp Dewpoint Dewpoint Depression Visibility Wind Speed Wind Dir Waves Ship Positions

Capetan Vassilis

Last reported at 2015-Mar-01 03:33 UTC. Time now 2015-Mar-01 04:31 UTC.
Position N 35°55' W 022°22'.

Length 191 m; draft 11.8 m.

MMSI: 311552000.

Date/timePositionNaut miles runAvg speedWind from/ knotsBaromVisibWave heightAir tempDewpointWater temp
2015-Mar-01 03:33N 35°55' W 022°22'2 2.1
2015-Mar-01 02:33N 35°54' W 022°24'1 0.5
2015-Mar-01 00:18N 35°55' W 022°25'1 0.5
2015-Feb-28 23:05N 35°55' W 022°26'0 0.5
2015-Feb-28 22:34N 35°55' W 022°26'1 0.5
2015-Feb-28 21:33N 35°56' W 022°26'2 0.8
2015-Feb-28 18:25N 35°58' W 022°28'1 0.6
2015-Feb-28 17:23N 35°59' W 022°28'1 0.8
2015-Feb-28 16:33N 35°59' W 022°28'1210.9
2015-Feb-28 15:30N 35°59' W 022°42'1413.1
2015-Feb-28 14:27N 35°59' W 022°59'1213.0
2015-Feb-28 13:33N 35°59' W 023°14'1413.0
2015-Feb-28 12:29N 36°00' W 023°31'1212.8
2015-Feb-28 11:33N 36°00' W 023°46'1312.7
2015-Feb-28 10:33N 36°00' W 024°01'1312.9
2015-Feb-28 09:34N 36°00' W 024°17'1312.8
2015-Feb-28 08:34N 36°00' W 024°33'1312.8
2015-Feb-28 07:33N 35°60' W 024°49'1312.7
2015-Feb-28 06:33N 35°59' W 025°04'1312.6
2015-Feb-28 05:33N 35°58' W 025°20'1312.9
2015-Feb-28 04:33N 35°56' W 025°36'1312.8
2015-Feb-28 03:33N 35°54' W 025°51'1212.1
2015-Feb-28 02:33N 35°52' W 026°06'1512.1
2015-Feb-28 01:19N 35°50' W 026°24'  
Track history (hours):
 
Tides and Currents Weather Stations Pressure Air Temp Water Temp Dewpoint Dewpoint Depression Visibility Wind Speed Wind Dir Waves Ship Positions

Capetan Vassilis

Last reported at 2015-Mar-01 03:33 UTC. Time now 2015-Mar-01 04:31 UTC.
Position N 35°55' W 022°22'.

Length 191 m; draft 11.8 m.

MMSI: 311552000.

Date/timePositionNaut miles runAvg speedWind from/ knotsBaromVisibWave heightAir tempDewpointWater temp
2015-Mar-01 03:33N 35°55' W 022°22'2 2.1
2015-Mar-01 02:33N 35°54' W 022°24'1 0.5
2015-Mar-01 00:18N 35°55' W 022°25'1 0.5
2015-Feb-28 23:05N 35°55' W 022°26'0 0.5
2015-Feb-28 22:34N 35°55' W 022°26'1 0.5
2015-Feb-28 21:33N 35°56' W 022°26'2 0.8
2015-Feb-28 18:25N 35°58' W 022°28'1 0.6
2015-Feb-28 17:23N 35°59' W 022°28'1 0.8
2015-Feb-28 16:33N 35°59' W 022°28'1210.9
2015-Feb-28 15:30N 35°59' W 022°42'1413.1
2015-Feb-28 14:27N 35°59' W 022°59'1213.0
2015-Feb-28 13:33N 35°59' W 023°14'1413.0
2015-Feb-28 12:29N 36°00' W 023°31'1212.8
2015-Feb-28 11:33N 36°00' W 023°46'1312.7
2015-Feb-28 10:33N 36°00' W 024°01'1312.9
2015-Feb-28 09:34N 36°00' W 024°17'1312.8
2015-Feb-28 08:34N 36°00' W 024°33'1312.8
2015-Feb-28 07:33N 35°60' W 024°49'1312.7
2015-Feb-28 06:33N 35°59' W 025°04'1312.6
2015-Feb-28 05:33N 35°58' W 025°20'1312.9
2015-Feb-28 04:33N 35°56' W 025°36'1312.8
2015-Feb-28 03:33N 35°54' W 025°51'1212.1
2015-Feb-28 02:33N 35°52' W 026°06'1512.1
2015-Feb-28 01:19N 35°50' W 026°24'  

Dump ship's entire track history